createdAt,value
2022-11-01T00:00:19.978Z,9.80
2022-11-01T00:00:51.928Z,8.30
2022-11-01T00:01:23.934Z,11.43
2022-11-01T00:01:56.413Z,12.52
2022-11-01T00:02:28.471Z,9.82
2022-11-01T00:03:00.439Z,11.57
2022-11-01T00:03:32.639Z,9.67
2022-11-01T00:04:04.689Z,10.20
2022-11-01T00:04:36.745Z,10.07
2022-11-01T00:05:08.975Z,9.03
2022-11-01T00:05:40.932Z,9.67
2022-11-01T00:06:12.939Z,9.60
2022-11-01T00:06:45.165Z,10.80
2022-11-01T00:07:17.173Z,13.63
2022-11-01T00:07:49.138Z,11.03
2022-11-01T00:08:21.110Z,8.40
2022-11-01T00:08:53.063Z,10.00
2022-11-01T00:09:25.160Z,9.80
2022-11-01T00:09:57.121Z,10.43
2022-11-01T00:10:29.058Z,9.65
2022-11-01T00:11:04.437Z,9.27
2022-11-01T00:11:36.519Z,9.63
2022-11-01T00:12:08.476Z,8.23
2022-11-01T00:12:41.261Z,13.00
2022-11-01T00:13:13.201Z,8.03
2022-11-01T00:13:45.808Z,10.43
2022-11-01T00:14:18.911Z,8.37
2022-11-01T00:14:50.857Z,8.80
2022-11-01T00:15:22.806Z,9.53
2022-11-01T00:15:54.748Z,10.80
2022-11-01T00:16:26.745Z,9.82
2022-11-01T00:16:58.751Z,7.83
2022-11-01T00:17:30.692Z,9.80
2022-11-01T00:18:02.642Z,9.73
2022-11-01T00:18:34.574Z,8.70
2022-11-01T00:19:06.525Z,7.73
2022-11-01T00:19:38.467Z,11.53
2022-11-01T00:20:10.809Z,7.40
2022-11-01T00:20:42.743Z,7.77
2022-11-01T00:21:15.196Z,8.27
2022-11-01T00:21:47.211Z,8.70
2022-11-01T00:22:19.217Z,7.63
2022-11-01T00:22:51.138Z,8.13
2022-11-01T00:23:23.110Z,9.27
2022-11-01T00:23:55.045Z,8.68
2022-11-01T00:24:27.020Z,7.97
2022-11-01T00:24:58.965Z,8.48
2022-11-01T00:25:31.045Z,8.35
2022-11-01T00:26:03.177Z,8.65
2022-11-01T00:26:35.493Z,8.88
2022-11-01T00:27:07.544Z,9.47
2022-11-01T00:27:39.465Z,8.27
2022-11-01T00:28:11.505Z,8.70
2022-11-01T00:28:43.836Z,12.57
2022-11-01T00:29:15.869Z,11.85
2022-11-01T00:29:47.884Z,11.38
2022-11-01T00:30:19.883Z,7.50
2022-11-01T00:30:52.697Z,6.63
2022-11-01T00:31:24.961Z,7.40
2022-11-01T00:31:56.943Z,10.90
2022-11-01T00:32:28.908Z,7.90
2022-11-01T00:33:00.879Z,7.88
2022-11-01T00:33:32.869Z,11.03
2022-11-01T00:34:06.373Z,8.13
2022-11-01T00:34:38.369Z,9.10
2022-11-01T00:35:10.309Z,10.40
2022-11-01T00:35:42.229Z,13.77
2022-11-01T00:36:14.759Z,8.25
2022-11-01T00:36:46.757Z,10.40
2022-11-01T00:37:18.715Z,11.90
2022-11-01T00:37:50.945Z,10.30
2022-11-01T00:38:22.921Z,10.13
2022-11-01T00:38:54.843Z,6.97
2022-11-01T00:39:30.543Z,8.23
2022-11-01T00:40:03.543Z,10.80
2022-11-01T00:40:35.460Z,8.43
2022-11-01T00:41:07.823Z,7.07
2022-11-01T00:41:39.793Z,13.00
2022-11-01T00:42:11.753Z,7.43
2022-11-01T00:42:43.656Z,7.43
2022-11-01T00:43:16.088Z,9.57
2022-11-01T00:43:48.555Z,7.00
2022-11-01T00:44:20.530Z,9.13
2022-11-01T00:44:52.504Z,11.90
2022-11-01T00:45:24.470Z,8.10
2022-11-01T00:45:56.472Z,13.00
2022-11-01T00:46:28.469Z,6.87
2022-11-01T00:47:00.415Z,8.37
2022-11-01T00:47:32.369Z,8.40
2022-11-01T00:48:04.654Z,10.00
2022-11-01T00:48:36.706Z,10.88
2022-11-01T00:49:08.661Z,7.93
2022-11-01T00:49:40.663Z,8.93
2022-11-01T00:50:12.729Z,9.50
2022-11-01T00:50:45.290Z,14.67
2022-11-01T00:51:17.231Z,12.37
2022-11-01T00:51:49.258Z,13.07
2022-11-01T00:52:21.256Z,8.00
2022-11-01T00:52:53.199Z,7.20
2022-11-01T00:53:25.178Z,10.23
2022-11-01T00:53:57.153Z,10.07
2022-11-01T00:54:29.086Z,10.40
2022-11-01T00:55:01.068Z,9.27
2022-11-01T00:55:33.172Z,7.03
2022-11-01T00:56:05.867Z,6.87
2022-11-01T00:56:37.817Z,7.43
2022-11-01T00:57:09.767Z,8.83
2022-11-01T00:57:41.857Z,10.00
2022-11-01T00:58:13.807Z,8.30
2022-11-01T00:58:45.784Z,8.80
2022-11-01T00:59:17.915Z,6.78
2022-11-01T00:59:49.977Z,12.30
2022-11-01T01:00:21.978Z,11.25
2022-11-01T01:00:54.008Z,8.07
2022-11-01T01:01:26.165Z,8.30
2022-11-01T01:01:58.432Z,8.90
2022-11-01T01:02:30.579Z,8.17
2022-11-01T01:03:03.552Z,14.03
2022-11-01T01:03:36.061Z,7.30
2022-11-01T01:04:08.009Z,10.43
2022-11-01T01:04:43.071Z,10.13
2022-11-01T01:05:15.058Z,9.77
2022-11-01T01:05:48.698Z,12.15
2022-11-01T01:06:20.718Z,8.77
2022-11-01T01:06:52.670Z,10.00
2022-11-01T01:07:24.592Z,13.33
2022-11-01T01:07:56.635Z,12.27
2022-11-01T01:08:28.671Z,7.87
2022-11-01T01:09:00.961Z,9.70
2022-11-01T01:09:32.896Z,8.03
2022-11-01T01:10:05.736Z,9.13
2022-11-01T01:10:37.691Z,12.97
2022-11-01T01:11:09.637Z,9.13
2022-11-01T01:11:41.579Z,11.23
2022-11-01T01:12:13.579Z,9.03
2022-11-01T01:12:45.558Z,10.20
2022-11-01T01:13:17.627Z,10.87
2022-11-01T01:13:49.584Z,9.43
2022-11-01T01:14:21.574Z,13.20
2022-11-01T01:14:54.277Z,7.40
2022-11-01T01:15:26.331Z,9.57
2022-11-01T01:15:58.365Z,10.40
2022-11-01T01:16:30.369Z,9.63
2022-11-01T01:17:02.808Z,8.32
2022-11-01T01:17:34.786Z,11.57
2022-11-01T01:18:06.973Z,9.57
2022-11-01T01:18:39.225Z,8.80
2022-11-01T01:19:11.142Z,10.30
2022-11-01T01:19:43.099Z,10.77
2022-11-01T01:20:15.452Z,9.50
2022-11-01T01:20:47.468Z,9.93
2022-11-01T01:21:19.617Z,11.50
2022-11-01T01:21:51.560Z,9.00
2022-11-01T01:22:23.496Z,8.43
2022-11-01T01:22:55.726Z,8.63
2022-11-01T01:23:27.660Z,8.63
2022-11-01T01:23:59.628Z,11.50
2022-11-01T01:24:32.055Z,10.40
2022-11-01T01:25:04.200Z,8.67
2022-11-01T01:25:38.418Z,8.77
2022-11-01T01:26:11.128Z,10.70
2022-11-01T01:26:43.124Z,8.70
2022-11-01T01:27:15.450Z,8.33
2022-11-01T01:27:47.444Z,10.27
2022-11-01T01:28:19.366Z,10.07
2022-11-01T01:28:52.961Z,8.73
2022-11-01T01:29:25.016Z,10.03
2022-11-01T01:29:56.983Z,9.63
2022-11-01T01:30:28.928Z,11.60
2022-11-01T01:31:00.871Z,11.27
2022-11-01T01:31:32.800Z,13.20
2022-11-01T01:32:04.813Z,11.20
2022-11-01T01:32:36.795Z,9.80
2022-11-01T01:33:09.570Z,12.50
2022-11-01T01:33:41.586Z,9.27
2022-11-01T01:34:13.544Z,13.37
2022-11-01T01:34:45.561Z,10.20
2022-11-01T01:35:17.587Z,7.73
2022-11-01T01:35:49.600Z,10.90
2022-11-01T01:36:21.631Z,9.70
2022-11-01T01:36:53.551Z,9.67
2022-11-01T01:37:25.546Z,7.97
2022-11-01T01:37:57.484Z,12.27
2022-11-01T01:38:29.997Z,10.10
2022-11-01T01:39:02.182Z,7.30
2022-11-01T01:39:34.376Z,9.70
2022-11-01T01:40:07.324Z,9.07
2022-11-01T01:40:39.231Z,10.83
2022-11-01T01:41:29.896Z,14.27
2022-11-01T01:42:02.986Z,13.23
2022-11-01T01:42:39.086Z,10.50
2022-11-01T01:43:12.134Z,8.90
2022-11-01T01:43:44.480Z,10.23
2022-11-01T01:44:35.112Z,10.53
2022-11-01T01:45:09.831Z,12.70
2022-11-01T01:45:41.922Z,8.70
2022-11-01T01:46:13.897Z,10.17
2022-11-01T01:46:45.941Z,11.10
2022-11-01T01:47:23.013Z,8.97
2022-11-01T01:47:55.690Z,7.30
2022-11-01T01:48:27.731Z,11.40
2022-11-01T01:49:00.053Z,8.27
2022-11-01T01:49:32.057Z,13.10
2022-11-01T01:50:11.938Z,11.27
2022-11-01T01:50:48.870Z,8.97
2022-11-01T01:51:22.904Z,16.43
2022-11-01T01:51:54.840Z,8.73
2022-11-01T01:52:28.535Z,9.87
2022-11-01T01:53:09.724Z,11.73
2022-11-01T01:53:46.001Z,8.67
2022-11-01T01:54:18.062Z,10.47
2022-11-01T01:54:51.096Z,9.20
2022-11-01T01:55:26.042Z,10.20
2022-11-01T01:56:02.728Z,11.23
2022-11-01T01:56:36.615Z,11.77
2022-11-01T01:57:09.140Z,9.13
2022-11-01T01:57:41.612Z,7.50
2022-11-01T01:58:14.976Z,8.63
2022-11-01T01:58:54.822Z,7.53
2022-11-01T01:59:26.942Z,8.80
2022-11-01T01:59:58.980Z,8.93
2022-11-01T02:00:30.936Z,10.70
2022-11-01T02:01:02.995Z,11.20
2022-11-01T02:01:36.911Z,8.87
2022-11-01T02:02:09.092Z,12.27
2022-11-01T02:02:41.674Z,9.67
2022-11-01T02:03:14.212Z,9.07
2022-11-01T02:03:46.545Z,9.83
2022-11-01T02:04:22.454Z,9.48
2022-11-01T02:04:57.699Z,8.90
2022-11-01T02:05:37.270Z,8.43
2022-11-01T02:06:11.050Z,10.47
2022-11-01T02:06:43.067Z,9.20
2022-11-01T02:07:15.173Z,8.00
2022-11-01T02:07:47.225Z,11.50
2022-11-01T02:08:27.631Z,7.47
2022-11-01T02:09:00.723Z,11.17
2022-11-01T02:09:33.252Z,12.98
2022-11-01T02:10:05.817Z,10.53
2022-11-01T02:10:38.467Z,10.93
2022-11-01T02:11:11.149Z,8.53
2022-11-01T02:11:43.137Z,8.93
2022-11-01T02:12:15.120Z,9.23
2022-11-01T02:12:47.843Z,8.57
2022-11-01T02:13:19.783Z,10.13
2022-11-01T02:13:51.726Z,9.07
2022-11-01T02:14:24.605Z,10.13
2022-11-01T02:14:56.532Z,10.87
2022-11-01T02:15:39.612Z,10.00
2022-11-01T02:16:11.662Z,5.83
2022-11-01T02:17:05.649Z,8.30
2022-11-01T02:17:58.993Z,9.77
2022-11-01T02:18:57.512Z,12.73
2022-11-01T02:19:38.700Z,7.83
2022-11-01T02:20:36.645Z,11.93
2022-11-01T02:21:08.801Z,10.60
2022-11-01T02:21:40.719Z,9.10
2022-11-01T02:22:35.838Z,8.53
2022-11-01T02:23:38.751Z,10.37
2022-11-01T02:24:22.068Z,10.97
2022-11-01T02:25:10.792Z,11.93
2022-11-01T02:25:42.876Z,7.87
2022-11-01T02:26:39.614Z,7.60
2022-11-01T02:27:11.553Z,9.47
2022-11-01T02:28:02.143Z,7.53
2022-11-01T02:28:52.499Z,9.77
2022-11-01T02:29:33.581Z,9.60
2022-11-01T02:30:11.373Z,9.67
2022-11-01T02:31:02.173Z,10.93
2022-11-01T02:31:52.669Z,8.13
2022-11-01T02:32:27.789Z,9.07
2022-11-01T02:33:05.534Z,8.07
2022-11-01T02:33:42.158Z,9.00
2022-11-01T02:34:26.117Z,7.83
2022-11-01T02:34:58.050Z,9.53
2022-11-01T02:35:39.086Z,9.80
2022-11-01T02:36:22.919Z,6.77
2022-11-01T02:37:13.711Z,6.70
2022-11-01T02:37:48.501Z,7.73
2022-11-01T02:38:38.069Z,7.37
2022-11-01T02:39:53.525Z,8.43
2022-11-01T02:40:34.477Z,8.93
2022-11-01T02:41:11.982Z,7.90
2022-11-01T02:42:10.336Z,12.40
2022-11-01T02:42:44.315Z,9.57
2022-11-01T02:43:18.697Z,9.20
2022-11-01T02:44:04.259Z,8.23
2022-11-01T02:44:39.193Z,6.70
2022-11-01T02:45:28.916Z,8.17
2022-11-01T02:46:21.595Z,9.13
2022-11-01T02:47:01.376Z,8.17
2022-11-01T02:47:34.085Z,9.03
2022-11-01T02:48:06.658Z,7.80
2022-11-01T02:48:38.803Z,11.17
2022-11-01T02:49:12.720Z,14.60
2022-11-01T02:49:49.990Z,8.60
2022-11-01T02:50:22.863Z,7.87
2022-11-01T02:50:56.561Z,9.03
2022-11-01T02:51:29.356Z,10.60
2022-11-01T02:52:02.063Z,6.47
2022-11-01T02:52:35.814Z,9.80
2022-11-01T02:53:07.930Z,8.73
2022-11-01T02:53:39.891Z,7.63
2022-11-01T02:54:22.177Z,8.93
2022-11-01T02:54:58.419Z,6.97
2022-11-01T02:55:30.731Z,5.80
2022-11-01T02:56:02.876Z,12.97
2022-11-01T02:56:35.420Z,13.07
2022-11-01T02:57:25.593Z,8.40
2022-11-01T02:57:59.619Z,7.77
2022-11-01T02:58:32.093Z,10.17
2022-11-01T02:59:04.123Z,10.90
2022-11-01T02:59:46.343Z,9.53
2022-11-01T03:00:26.004Z,7.97
2022-11-01T03:00:58.004Z,9.40
2022-11-01T03:01:34.476Z,8.13
2022-11-01T03:02:08.653Z,8.83
2022-11-01T03:02:42.624Z,7.90
2022-11-01T03:03:29.053Z,7.83
2022-11-01T03:04:02.025Z,8.03
2022-11-01T03:04:35.016Z,6.67
2022-11-01T03:05:08.841Z,11.53
2022-11-01T03:05:59.033Z,9.33
2022-11-01T03:06:34.069Z,6.73
2022-11-01T03:07:08.605Z,6.00
2022-11-01T03:07:42.626Z,8.30
2022-11-01T03:08:16.944Z,7.10
2022-11-01T03:08:53.666Z,7.20
2022-11-01T03:09:25.815Z,10.97
2022-11-01T03:09:57.812Z,7.17
2022-11-01T03:10:49.715Z,5.83
2022-11-01T03:11:23.717Z,7.77
2022-11-01T03:12:01.046Z,7.37
2022-11-01T03:12:35.292Z,9.60
2022-11-01T03:13:21.334Z,6.93
2022-11-01T03:14:00.625Z,9.47
2022-11-01T03:14:43.129Z,7.70
2022-11-01T03:15:21.775Z,8.20
2022-11-01T03:15:56.861Z,10.10
2022-11-01T03:16:34.508Z,6.50
2022-11-01T03:17:12.525Z,7.43
2022-11-01T03:17:57.899Z,7.03
2022-11-01T03:18:33.007Z,8.33
2022-11-01T03:19:21.814Z,9.17
2022-11-01T03:20:00.624Z,7.70
2022-11-01T03:20:47.368Z,5.87
2022-11-01T03:21:21.809Z,6.87
2022-11-01T03:22:06.855Z,3.80
2022-11-01T03:22:44.282Z,5.40
2022-11-01T03:23:23.462Z,4.40
2022-11-01T03:24:02.023Z,5.13
2022-11-01T03:24:44.015Z,3.50
2022-11-01T03:25:36.746Z,4.60
2022-11-01T03:26:12.037Z,5.30
2022-11-01T03:26:45.725Z,4.87
2022-11-01T03:27:25.871Z,3.63
2022-11-01T03:28:00.094Z,5.50
2022-11-01T03:28:31.997Z,5.87
2022-11-01T03:29:06.729Z,3.73
2022-11-01T03:29:39.612Z,4.10
2022-11-01T03:30:14.186Z,2.90
2022-11-01T03:30:51.013Z,2.97
2022-11-01T03:31:25.782Z,2.47
2022-11-01T03:31:58.358Z,4.33
2022-11-01T03:32:40.773Z,4.30
2022-11-01T03:33:13.782Z,5.37
2022-11-01T03:33:48.078Z,3.93
2022-11-01T03:34:20.422Z,6.27
2022-11-01T03:34:52.772Z,2.40
2022-11-01T03:35:26.446Z,3.47
2022-11-01T03:36:01.702Z,2.70
2022-11-01T03:36:39.077Z,2.23
2022-11-01T03:37:12.130Z,3.53
2022-11-01T03:37:44.874Z,2.63
2022-11-01T03:38:18.886Z,4.27
2022-11-01T03:38:52.804Z,3.93
2022-11-01T03:39:26.722Z,4.40
2022-11-01T03:40:02.871Z,4.97
2022-11-01T03:40:35.950Z,2.63
2022-11-01T03:41:11.027Z,1.80
2022-11-01T03:41:45.062Z,3.57
2022-11-01T03:42:18.870Z,2.47
2022-11-01T03:42:51.954Z,2.93
2022-11-01T03:43:24.958Z,3.50
2022-11-01T03:43:56.938Z,3.23
2022-11-01T03:44:32.470Z,4.83
2022-11-01T03:45:06.820Z,2.80
2022-11-01T03:45:39.687Z,2.50
2022-11-01T03:46:13.548Z,1.57
2022-11-01T03:46:45.877Z,6.93
2022-11-01T03:47:18.370Z,1.87
2022-11-01T03:47:50.459Z,4.93
2022-11-01T03:48:22.436Z,4.13
2022-11-01T03:48:54.420Z,4.30
2022-11-01T03:49:26.356Z,2.03
2022-11-01T03:50:10.994Z,3.00
2022-11-01T03:50:46.933Z,1.27
2022-11-01T03:51:18.856Z,4.03
2022-11-01T03:51:50.789Z,2.43
2022-11-01T03:52:22.712Z,3.17
2022-11-01T03:52:54.967Z,3.40
2022-11-01T03:53:26.976Z,5.97
2022-11-01T03:53:59.065Z,3.67
2022-11-01T03:54:31.016Z,3.10
2022-11-01T03:55:17.961Z,2.87
2022-11-01T03:55:50.292Z,3.43
2022-11-01T03:56:22.229Z,3.03
2022-11-01T03:56:54.239Z,2.73
2022-11-01T03:57:26.759Z,2.20
2022-11-01T03:57:59.960Z,2.80
2022-11-01T03:58:44.864Z,5.87
2022-11-01T03:59:16.859Z,2.50
2022-11-01T03:59:48.810Z,1.93
2022-11-01T04:00:25.174Z,2.73
2022-11-01T04:00:57.142Z,2.93
2022-11-01T04:01:29.168Z,2.43
2022-11-01T04:02:01.316Z,4.87
2022-11-01T04:02:33.382Z,2.13
2022-11-01T04:03:05.923Z,3.10
2022-11-01T04:03:38.372Z,4.00
2022-11-01T04:04:10.412Z,2.60
2022-11-01T04:04:42.333Z,3.47
2022-11-01T04:05:14.459Z,3.00
2022-11-01T04:05:46.400Z,4.40
2022-11-01T04:06:18.344Z,2.33
2022-11-01T04:06:50.629Z,2.00
2022-11-01T04:07:22.537Z,3.03
2022-11-01T04:07:54.864Z,1.93
2022-11-01T04:08:26.796Z,2.93
2022-11-01T04:08:58.825Z,6.23
2022-11-01T04:09:30.852Z,2.93
2022-11-01T04:10:02.846Z,3.20
2022-11-01T04:10:35.218Z,1.77
2022-11-01T04:11:07.260Z,3.07
2022-11-01T04:11:39.174Z,3.67
2022-11-01T04:12:11.123Z,1.87
2022-11-01T04:12:47.021Z,2.10
2022-11-01T04:13:18.986Z,2.73
2022-11-01T04:13:50.996Z,3.57
2022-11-01T04:14:41.579Z,4.27
2022-11-01T04:15:32.260Z,1.83
2022-11-01T04:16:22.964Z,3.40
2022-11-01T04:17:13.809Z,4.13
2022-11-01T04:18:04.570Z,4.13
2022-11-01T04:18:55.263Z,3.97
2022-11-01T04:19:45.966Z,3.63
2022-11-01T04:20:33.376Z,1.60
2022-11-01T04:21:07.218Z,2.37
2022-11-01T04:21:39.494Z,3.20
2022-11-01T04:22:11.617Z,1.50
2022-11-01T04:22:43.739Z,3.70
2022-11-01T04:23:16.103Z,4.07
2022-11-01T04:23:48.113Z,5.73
2022-11-01T04:24:21.134Z,2.17
2022-11-01T04:24:53.353Z,2.07
2022-11-01T04:25:25.279Z,2.50
2022-11-01T04:25:57.226Z,3.90
2022-11-01T04:26:29.261Z,2.70
2022-11-01T04:27:01.231Z,2.77
2022-11-01T04:27:33.150Z,2.33
2022-11-01T04:28:05.112Z,2.90
2022-11-01T04:28:37.129Z,4.37
2022-11-01T04:29:09.080Z,4.97
2022-11-01T04:29:41.011Z,3.50
2022-11-01T04:30:13.002Z,5.53
2022-11-01T04:30:45.042Z,3.17
2022-11-01T04:31:16.958Z,5.80
2022-11-01T04:31:48.939Z,3.97
2022-11-01T04:32:20.844Z,3.87
2022-11-01T04:32:52.806Z,3.97
2022-11-01T04:33:24.775Z,2.43
2022-11-01T04:33:57.514Z,4.30
2022-11-01T04:34:44.590Z,4.23
2022-11-01T04:35:16.621Z,4.83
2022-11-01T04:35:48.662Z,3.70
2022-11-01T04:36:20.727Z,4.90
2022-11-01T04:36:52.685Z,3.50
2022-11-01T04:37:24.665Z,4.10
2022-11-01T04:37:57.413Z,2.60
2022-11-01T04:38:29.352Z,2.97
2022-11-01T04:39:01.354Z,3.83
2022-11-01T04:39:33.293Z,3.60
2022-11-01T04:40:08.415Z,6.03
2022-11-01T04:40:41.177Z,4.30
2022-11-01T04:41:13.219Z,3.40
2022-11-01T04:41:46.382Z,3.53
2022-11-01T04:42:18.317Z,4.70
2022-11-01T04:42:50.265Z,2.23
2022-11-01T04:43:23.348Z,2.87
2022-11-01T04:43:56.553Z,3.90
2022-11-01T04:44:29.542Z,1.87
2022-11-01T04:45:01.846Z,2.53
2022-11-01T04:45:33.795Z,3.50
2022-11-01T04:46:05.912Z,3.03
2022-11-01T04:46:37.831Z,5.00
2022-11-01T04:47:09.775Z,2.83
2022-11-01T04:47:50.857Z,3.37
2022-11-01T04:48:23.266Z,2.43
2022-11-01T04:48:55.209Z,3.67
2022-11-01T04:49:27.170Z,3.73
2022-11-01T04:49:59.128Z,1.43
2022-11-01T04:50:31.147Z,2.00
2022-11-01T04:51:03.084Z,2.07
2022-11-01T04:51:35.041Z,2.90
2022-11-01T04:52:07.489Z,2.60
2022-11-01T04:52:39.445Z,3.55
2022-11-01T04:53:11.599Z,2.70
2022-11-01T04:53:43.606Z,3.60
2022-11-01T04:54:16.168Z,3.47
2022-11-01T04:54:48.209Z,2.33
2022-11-01T04:55:20.155Z,2.77
2022-11-01T04:55:52.087Z,5.47
2022-11-01T04:56:24.116Z,1.73
2022-11-01T04:56:56.055Z,1.73
2022-11-01T04:57:28.012Z,3.07
2022-11-01T04:57:59.962Z,1.83
2022-11-01T04:58:33.363Z,3.23
2022-11-01T04:59:05.325Z,2.20
2022-11-01T04:59:37.241Z,4.93
2022-11-01T05:00:14.046Z,2.50
2022-11-01T05:00:46.142Z,2.00
2022-11-01T05:01:18.161Z,3.73
2022-11-01T05:01:50.390Z,3.57
2022-11-01T05:02:23.343Z,3.10
2022-11-01T05:03:02.930Z,3.70
2022-11-01T05:03:35.343Z,1.93
2022-11-01T05:04:07.321Z,2.30
2022-11-01T05:04:39.234Z,4.87
2022-11-01T05:05:11.717Z,2.27
2022-11-01T05:05:43.661Z,2.20
2022-11-01T05:06:15.618Z,1.40
2022-11-01T05:06:47.695Z,2.30
2022-11-01T05:07:19.647Z,3.67
2022-11-01T05:07:51.705Z,2.30
2022-11-01T05:08:23.698Z,4.67
2022-11-01T05:08:55.704Z,2.77
2022-11-01T05:09:27.717Z,2.43
2022-11-01T05:09:59.703Z,3.67
2022-11-01T05:10:32.436Z,1.48
2022-11-01T05:11:04.439Z,2.63
2022-11-01T05:11:36.378Z,2.63
2022-11-01T05:12:08.775Z,3.07
2022-11-01T05:12:40.750Z,1.80
2022-11-01T05:13:13.278Z,1.73
2022-11-01T05:13:45.267Z,1.80
2022-11-01T05:14:17.253Z,1.80
2022-11-01T05:14:51.835Z,2.00
2022-11-01T05:15:26.332Z,2.40
2022-11-01T05:16:50.288Z,2.40
2022-11-01T05:17:22.844Z,2.70
2022-11-01T05:17:55.384Z,3.17
2022-11-01T05:18:27.323Z,3.67
2022-11-01T05:18:59.272Z,1.77
2022-11-01T05:19:31.251Z,2.72
2022-11-01T05:20:03.362Z,3.87
2022-11-01T05:20:35.426Z,2.87
2022-11-01T05:21:07.365Z,2.93
2022-11-01T05:21:39.380Z,4.30
2022-11-01T05:22:11.310Z,2.00
2022-11-01T05:22:43.259Z,2.53
2022-11-01T05:23:15.250Z,3.17
2022-11-01T05:23:48.059Z,3.27
2022-11-01T05:24:20.312Z,3.90
2022-11-01T05:24:53.151Z,2.93
2022-11-01T05:25:25.218Z,4.20
2022-11-01T05:25:57.180Z,2.20
2022-11-01T05:26:29.134Z,3.17
2022-11-01T05:27:01.031Z,2.07
2022-11-01T05:27:32.973Z,3.57
2022-11-01T05:28:10.612Z,2.73
2022-11-01T05:28:42.555Z,3.40
2022-11-01T05:29:33.780Z,3.80
2022-11-01T05:30:06.404Z,4.77
2022-11-01T05:30:38.695Z,2.93
2022-11-01T05:31:10.952Z,4.23
2022-11-01T05:31:42.923Z,2.50
2022-11-01T05:32:14.865Z,2.17
2022-11-01T05:32:46.868Z,1.93
2022-11-01T05:33:18.854Z,2.27
2022-11-01T05:33:50.820Z,2.53
2022-11-01T05:34:22.777Z,3.73
2022-11-01T05:34:54.748Z,3.63
2022-11-01T05:35:27.336Z,2.13
2022-11-01T05:36:00.584Z,6.03
2022-11-01T05:36:32.494Z,4.63
2022-11-01T05:37:04.448Z,3.83
2022-11-01T05:37:36.802Z,4.87
2022-11-01T05:38:09.597Z,4.03
2022-11-01T05:38:41.574Z,5.53
2022-11-01T05:39:13.568Z,4.80
2022-11-01T05:39:45.540Z,4.23
2022-11-01T05:40:17.492Z,3.00
2022-11-01T05:40:50.475Z,4.87
2022-11-01T05:41:22.585Z,3.50
2022-11-01T05:41:56.836Z,3.80
2022-11-01T05:42:31.960Z,4.10
2022-11-01T05:43:04.403Z,4.80
2022-11-01T05:43:36.584Z,4.93
2022-11-01T05:44:08.557Z,4.00
2022-11-01T05:44:40.475Z,3.50
2022-11-01T05:45:12.502Z,4.67
2022-11-01T05:45:44.581Z,4.23
2022-11-01T05:46:16.646Z,2.70
2022-11-01T05:46:48.561Z,4.37
2022-11-01T05:47:20.464Z,3.10
2022-11-01T05:47:52.624Z,4.60
2022-11-01T05:48:24.582Z,3.37
2022-11-01T05:48:56.499Z,5.23
2022-11-01T05:49:28.490Z,4.87
2022-11-01T05:50:00.426Z,3.03
2022-11-01T05:50:32.420Z,6.17
2022-11-01T05:51:05.531Z,4.23
2022-11-01T05:51:39.152Z,5.30
2022-11-01T05:52:11.118Z,5.30
2022-11-01T05:52:43.839Z,3.73
2022-11-01T05:53:15.872Z,5.60
2022-11-01T05:53:48.293Z,6.43
2022-11-01T05:54:20.209Z,3.57
2022-11-01T05:54:52.162Z,4.10
2022-11-01T05:55:24.084Z,3.30
2022-11-01T05:55:56.329Z,3.57
2022-11-01T05:56:28.423Z,5.93
2022-11-01T05:57:00.336Z,4.23
2022-11-01T05:57:33.501Z,5.33
2022-11-01T05:58:05.967Z,3.90
2022-11-01T05:58:37.901Z,2.87
2022-11-01T05:59:09.821Z,4.30
2022-11-01T05:59:41.783Z,3.67
2022-11-01T06:00:13.813Z,3.53
2022-11-01T06:00:45.801Z,3.77
2022-11-01T06:01:18.023Z,4.30
2022-11-01T06:01:50.155Z,4.50
2022-11-01T06:02:22.319Z,4.67
2022-11-01T06:02:56.723Z,2.83
2022-11-01T06:03:28.750Z,3.80
2022-11-01T06:04:01.981Z,4.73
2022-11-01T06:04:33.902Z,4.00
2022-11-01T06:05:05.929Z,5.80
2022-11-01T06:05:38.428Z,5.80
2022-11-01T06:06:11.647Z,3.93
2022-11-01T06:06:43.600Z,5.53
2022-11-01T06:07:15.603Z,4.70
2022-11-01T06:07:47.579Z,7.37
2022-11-01T06:08:19.589Z,3.73
2022-11-01T06:08:51.520Z,5.83
2022-11-01T06:09:23.450Z,6.87
2022-11-01T06:09:55.468Z,4.43
2022-11-01T06:10:27.613Z,5.23
2022-11-01T06:11:03.603Z,3.00
2022-11-01T06:11:40.577Z,5.93
2022-11-01T06:12:13.580Z,6.50
2022-11-01T06:12:45.633Z,6.53
2022-11-01T06:13:17.927Z,3.83
2022-11-01T06:13:56.683Z,2.70
2022-11-01T06:14:28.675Z,4.17
2022-11-01T06:15:00.725Z,2.57
2022-11-01T06:15:34.435Z,3.63
2022-11-01T06:16:09.194Z,5.33
2022-11-01T06:16:41.234Z,4.40
2022-11-01T06:17:13.501Z,4.00
2022-11-01T06:17:45.553Z,5.47
2022-11-01T06:18:17.460Z,4.00
2022-11-01T06:18:49.838Z,5.33
2022-11-01T06:19:21.738Z,4.43
2022-11-01T06:19:53.783Z,4.90
2022-11-01T06:20:29.639Z,3.33
2022-11-01T06:21:01.605Z,8.33
2022-11-01T06:21:33.567Z,4.00
2022-11-01T06:22:05.600Z,6.33
2022-11-01T06:22:37.941Z,2.83
2022-11-01T06:23:10.627Z,4.53
2022-11-01T06:23:46.085Z,4.03
2022-11-01T06:24:18.110Z,5.03
2022-11-01T06:24:50.057Z,5.33
2022-11-01T06:25:22.236Z,5.83
2022-11-01T06:26:01.155Z,4.83
2022-11-01T06:26:33.131Z,3.87
2022-11-01T06:27:08.586Z,3.27
2022-11-01T06:27:43.543Z,1.93
2022-11-01T06:28:15.724Z,4.30
2022-11-01T06:28:47.875Z,2.03
2022-11-01T06:29:19.813Z,3.37
2022-11-01T06:29:51.745Z,5.07
2022-11-01T06:30:23.682Z,6.10
2022-11-01T06:30:55.697Z,3.87
2022-11-01T06:31:27.698Z,5.67
2022-11-01T06:31:59.645Z,3.43
2022-11-01T06:32:31.589Z,5.40
2022-11-01T06:33:03.962Z,3.13
2022-11-01T06:33:36.292Z,3.57
2022-11-01T06:34:08.286Z,8.37
2022-11-01T06:34:42.470Z,3.93
2022-11-01T06:35:16.897Z,2.63
2022-11-01T06:35:48.863Z,6.20
2022-11-01T06:36:22.302Z,4.47
2022-11-01T06:36:54.245Z,3.10
2022-11-01T06:37:26.211Z,5.47
2022-11-01T06:38:07.459Z,3.70
2022-11-01T06:38:39.390Z,3.67
2022-11-01T06:39:11.541Z,5.47
2022-11-01T06:39:43.485Z,4.70
2022-11-01T06:40:15.467Z,4.40
2022-11-01T06:40:47.635Z,5.97
2022-11-01T06:41:19.583Z,5.00
2022-11-01T06:41:51.856Z,6.73
2022-11-01T06:42:24.875Z,3.97
2022-11-01T06:43:01.535Z,4.83
2022-11-01T06:43:33.781Z,3.53
2022-11-01T06:44:05.738Z,4.53
2022-11-01T06:44:37.684Z,4.60
2022-11-01T06:45:09.687Z,5.13
2022-11-01T06:45:41.666Z,9.00
2022-11-01T06:46:13.598Z,4.23
2022-11-01T06:46:45.703Z,4.37
2022-11-01T06:47:17.673Z,3.93
2022-11-01T06:47:49.662Z,4.63
2022-11-01T06:48:21.750Z,4.10
2022-11-01T06:48:53.687Z,5.60
2022-11-01T06:49:25.731Z,3.00
2022-11-01T06:49:57.660Z,5.20
2022-11-01T06:50:29.647Z,4.90
2022-11-01T06:51:05.148Z,2.40
2022-11-01T06:51:37.148Z,5.10
2022-11-01T06:52:09.187Z,4.97
2022-11-01T06:52:41.093Z,5.10
2022-11-01T06:53:13.012Z,3.15
2022-11-01T06:53:44.941Z,4.23
2022-11-01T06:54:16.903Z,5.60
2022-11-01T06:54:48.849Z,3.23
2022-11-01T06:55:20.997Z,4.60
2022-11-01T06:55:52.957Z,4.77
2022-11-01T06:56:24.945Z,4.37
2022-11-01T06:56:56.877Z,3.53
2022-11-01T06:57:28.813Z,3.10
2022-11-01T06:58:02.179Z,3.27
2022-11-01T06:58:34.436Z,3.73
2022-11-01T06:59:06.606Z,3.10
2022-11-01T06:59:38.583Z,3.23
2022-11-01T07:00:11.223Z,5.10
2022-11-01T07:00:43.285Z,2.97
2022-11-01T07:01:15.344Z,4.10
2022-11-01T07:01:47.542Z,4.07
2022-11-01T07:02:20.058Z,3.47
2022-11-01T07:03:00.387Z,6.50
2022-11-01T07:03:32.688Z,5.07
2022-11-01T07:04:05.243Z,2.40
2022-11-01T07:04:37.440Z,3.67
2022-11-01T07:05:09.495Z,3.63
2022-11-01T07:05:41.898Z,4.80
2022-11-01T07:06:14.503Z,3.67
2022-11-01T07:06:46.950Z,3.80
2022-11-01T07:07:18.894Z,4.93
2022-11-01T07:07:50.889Z,3.67
2022-11-01T07:08:22.878Z,2.53
2022-11-01T07:08:55.441Z,5.27
2022-11-01T07:09:27.381Z,4.20
2022-11-01T07:09:59.306Z,2.87
2022-11-01T07:10:31.332Z,4.53
2022-11-01T07:11:03.313Z,2.93
2022-11-01T07:11:35.284Z,4.30
2022-11-01T07:12:07.261Z,3.77
2022-11-01T07:12:39.207Z,4.20
2022-11-01T07:13:12.736Z,3.33
2022-11-01T07:13:44.705Z,4.50
2022-11-01T07:14:16.686Z,3.90
2022-11-01T07:14:48.609Z,3.77
2022-11-01T07:15:20.519Z,2.43
2022-11-01T07:15:52.444Z,4.10
2022-11-01T07:16:24.553Z,3.60
2022-11-01T07:16:56.561Z,3.60
2022-11-01T07:17:28.454Z,3.60
2022-11-01T07:18:01.586Z,3.57
2022-11-01T07:18:34.509Z,4.50
2022-11-01T07:19:06.460Z,4.23
2022-11-01T07:19:38.427Z,3.60
2022-11-01T07:20:10.433Z,3.30
2022-11-01T07:20:42.596Z,3.27
2022-11-01T07:21:14.858Z,8.38
2022-11-01T07:21:46.795Z,2.28
2022-11-01T07:22:18.720Z,4.97
2022-11-01T07:23:04.641Z,4.73
2022-11-01T07:23:36.876Z,2.63
2022-11-01T07:24:08.810Z,5.23
2022-11-01T07:24:40.730Z,3.10
2022-11-01T07:25:12.666Z,3.53
2022-11-01T07:25:44.636Z,4.67
2022-11-01T07:26:16.588Z,3.57
2022-11-01T07:26:48.540Z,3.33
2022-11-01T07:27:20.859Z,4.70
2022-11-01T07:27:52.938Z,5.63
2022-11-01T07:28:25.017Z,2.67
2022-11-01T07:28:57.011Z,2.90
2022-11-01T07:29:28.928Z,3.73
2022-11-01T07:30:00.840Z,6.67
2022-11-01T07:30:32.880Z,3.90